createdAt,value
2022-10-18T00:03:54.889Z,36.00
2022-10-18T00:10:56.877Z,28.30
2022-10-18T00:17:58.624Z,28.88
2022-10-18T00:25:00.565Z,32.22
2022-10-18T00:32:02.363Z,40.65
2022-10-18T00:39:05.584Z,30.30
2022-10-18T00:46:07.511Z,37.63
2022-10-18T00:53:12.437Z,32.95
2022-10-18T01:00:14.663Z,32.60
2022-10-18T01:07:25.738Z,33.97
2022-10-18T01:14:46.290Z,32.50
2022-10-18T01:22:05.712Z,30.48
2022-10-18T01:29:07.634Z,28.02
2022-10-18T01:36:09.382Z,29.48
2022-10-18T01:43:12.538Z,28.15
2022-10-18T01:50:14.316Z,30.80
2022-10-18T01:57:16.390Z,28.05
2022-10-18T02:04:30.484Z,26.17
2022-10-18T02:11:32.851Z,28.77
2022-10-18T02:18:36.742Z,26.13
2022-10-18T02:25:39.367Z,30.30
2022-10-18T02:32:42.015Z,25.35
2022-10-18T02:39:46.182Z,27.52
2022-10-18T02:46:48.348Z,31.27
2022-10-18T02:53:50.185Z,25.10
2022-10-18T03:00:52.143Z,24.27
2022-10-18T03:07:53.852Z,21.92
2022-10-18T03:14:55.616Z,24.90
2022-10-18T03:21:57.508Z,27.08
2022-10-18T03:28:59.535Z,22.65
2022-10-18T03:36:01.567Z,24.08
2022-10-18T03:43:03.343Z,20.35
2022-10-18T03:50:05.263Z,21.25
2022-10-18T03:57:06.999Z,20.83
2022-10-18T04:04:08.852Z,26.05
2022-10-18T04:11:11.526Z,23.27
2022-10-18T04:18:13.420Z,22.80
2022-10-18T04:25:15.356Z,19.42
2022-10-18T04:32:17.170Z,23.70
2022-10-18T04:39:18.969Z,29.40
2022-10-18T04:46:20.833Z,25.17
2022-10-18T04:53:22.701Z,25.88
2022-10-18T05:00:24.639Z,23.20
2022-10-18T05:07:26.521Z,26.92
2022-10-18T05:14:28.242Z,24.50
2022-10-18T05:21:30.134Z,26.65
2022-10-18T05:28:40.829Z,24.55
2022-10-18T05:35:43.281Z,27.13
2022-10-18T05:42:45.061Z,27.15
2022-10-18T05:49:48.769Z,23.02
2022-10-18T05:56:50.652Z,23.90
2022-10-18T06:03:52.537Z,27.63
2022-10-18T06:10:54.714Z,28.55
2022-10-18T06:17:56.641Z,24.98
2022-10-18T06:24:58.554Z,30.30
2022-10-18T06:32:00.314Z,29.30
2022-10-18T06:39:02.865Z,27.70
2022-10-18T06:46:06.978Z,27.45
2022-10-18T06:53:09.323Z,27.50
2022-10-18T07:00:11.472Z,28.65
2022-10-18T07:07:13.162Z,28.98
2022-10-18T07:14:16.412Z,32.08
2022-10-18T07:21:20.140Z,31.02
2022-10-18T07:28:22.085Z,28.50
2022-10-18T07:35:23.886Z,28.50
2022-10-18T07:42:25.620Z,30.23
2022-10-18T07:49:27.514Z,33.97
2022-10-18T07:56:29.319Z,29.30
2022-10-18T08:03:31.086Z,31.83
2022-10-18T08:10:35.106Z,27.88
2022-10-18T08:17:37.282Z,31.55
2022-10-18T08:24:39.205Z,33.58
2022-10-18T08:31:40.996Z,26.73
2022-10-18T08:38:43.674Z,32.33
2022-10-18T08:45:46.251Z,33.08
2022-10-18T08:52:48.126Z,34.35
2022-10-18T08:59:50.048Z,29.25
2022-10-18T09:06:53.469Z,34.30
2022-10-18T09:14:13.980Z,32.95
2022-10-18T09:21:15.712Z,28.02
2022-10-18T09:28:31.426Z,33.45
2022-10-18T09:35:45.318Z,29.23
2022-10-18T09:43:00.259Z,34.67
2022-10-18T09:50:04.332Z,32.65
2022-10-18T09:57:11.530Z,27.17
2022-10-18T10:04:13.288Z,27.48
2022-10-18T10:11:35.591Z,27.52
2022-10-18T10:18:39.667Z,26.98
2022-10-18T10:25:42.472Z,29.58
2022-10-18T10:32:47.017Z,25.48
2022-10-18T10:40:17.812Z,28.83
2022-10-18T10:47:32.090Z,28.58
2022-10-18T10:54:36.650Z,31.73
2022-10-18T11:01:38.646Z,30.83
2022-10-18T11:08:41.803Z,35.65
2022-10-18T11:15:48.553Z,30.52
2022-10-18T11:22:56.602Z,33.15
2022-10-18T11:30:04.218Z,33.45
2022-10-18T11:37:41.794Z,33.28
2022-10-18T11:44:44.237Z,37.92
2022-10-18T11:52:07.826Z,33.05
2022-10-18T11:59:30.268Z,29.35
2022-10-18T12:06:38.934Z,32.47
2022-10-18T12:13:47.119Z,41.67
2022-10-18T12:20:53.763Z,32.05
2022-10-18T12:27:55.919Z,34.97
2022-10-18T12:35:06.992Z,39.47
2022-10-18T12:42:18.037Z,38.10
2022-10-18T12:49:28.749Z,37.45
2022-10-18T12:56:34.453Z,40.42
2022-10-18T13:03:56.573Z,36.47
2022-10-18T13:11:10.586Z,34.13
2022-10-18T13:18:26.999Z,42.65
2022-10-18T13:25:47.458Z,34.65
2022-10-18T13:32:58.485Z,34.50
2022-10-18T13:40:19.146Z,36.22
2022-10-18T13:47:34.463Z,36.10
2022-10-18T13:54:36.492Z,30.40
2022-10-18T14:01:46.522Z,35.33
2022-10-18T14:09:14.027Z,25.58
2022-10-18T14:16:30.639Z,48.13
2022-10-18T14:23:37.204Z,22.48
2022-10-18T14:30:53.201Z,25.55
2022-10-18T14:37:55.429Z,30.02
2022-10-18T14:44:57.567Z,29.42
2022-10-18T14:52:00.383Z,36.65
2022-10-18T14:59:03.796Z,31.73
2022-10-18T15:06:07.562Z,29.75
2022-10-18T15:13:13.746Z,28.67
2022-10-18T15:20:19.054Z,20.40
2022-10-18T15:27:30.234Z,25.17
2022-10-18T15:34:32.605Z,16.00
2022-10-18T15:41:40.553Z,22.17
2022-10-18T15:48:42.258Z,22.85
2022-10-18T15:55:48.647Z,22.00
2022-10-18T16:02:50.580Z,14.63
2022-10-18T16:09:52.356Z,15.23
2022-10-18T16:16:55.562Z,12.30
2022-10-18T16:24:00.048Z,13.20
2022-10-18T16:31:03.708Z,12.20
2022-10-18T16:38:06.115Z,14.90
2022-10-18T16:45:08.427Z,17.42
2022-10-18T16:52:10.818Z,9.35
2022-10-18T16:59:20.973Z,15.00
2022-10-18T17:06:30.054Z,16.25
2022-10-18T17:13:32.535Z,14.20
2022-10-18T17:20:34.575Z,17.13
2022-10-18T17:27:37.169Z,11.65
2022-10-18T17:41:43.469Z,9.00
2022-10-18T17:48:46.279Z,10.13
2022-10-18T17:55:48.529Z,5.68
2022-10-18T18:02:51.077Z,12.75
2022-10-18T18:09:53.923Z,13.93
2022-10-18T18:16:56.521Z,17.65
2022-10-18T18:24:00.179Z,13.85
2022-10-18T18:31:07.150Z,11.32
2022-10-18T18:38:10.917Z,8.95
2022-10-18T18:45:14.517Z,8.52
2022-10-18T18:52:20.091Z,11.70
2022-10-18T18:59:23.816Z,16.02
2022-10-18T19:06:45.965Z,23.70
2022-10-18T19:13:49.738Z,16.70
2022-10-18T19:20:55.467Z,21.98
2022-10-18T19:27:58.249Z,24.05
2022-10-18T19:35:01.414Z,25.38
2022-10-18T19:42:10.089Z,17.15
2022-10-18T19:49:13.617Z,14.50
2022-10-18T19:56:17.972Z,13.23
2022-10-18T20:03:20.762Z,8.57
2022-10-18T20:10:22.559Z,15.68
2022-10-18T20:17:24.254Z,11.10
2022-10-18T20:24:26.178Z,18.23
2022-10-18T20:31:29.592Z,16.48
2022-10-18T20:38:35.115Z,13.32
2022-10-18T20:45:36.830Z,17.40
2022-10-18T20:52:38.757Z,19.13
2022-10-18T20:59:40.611Z,16.25
2022-10-18T21:06:43.962Z,16.35
2022-10-18T21:13:50.043Z,18.65
2022-10-18T21:20:53.116Z,18.05
2022-10-18T21:27:55.098Z,23.38
2022-10-18T21:34:57.011Z,17.23
2022-10-18T21:41:59.007Z,24.83
2022-10-18T21:49:00.905Z,15.90
2022-10-18T21:56:07.385Z,14.57
2022-10-18T22:03:10.114Z,16.52
2022-10-18T22:10:13.118Z,13.43
2022-10-18T22:17:15.022Z,16.15
2022-10-18T22:24:17.195Z,22.25
2022-10-18T22:31:20.528Z,13.50
2022-10-18T22:38:22.385Z,21.08
2022-10-18T22:45:24.146Z,15.43
2022-10-18T22:52:25.882Z,19.13
2022-10-18T22:59:27.644Z,12.95
2022-10-18T23:15:13.695Z,14.65
2022-10-18T23:29:36.027Z,13.57
2022-10-18T23:36:37.979Z,14.45
2022-10-18T23:43:40.190Z,16.08
2022-10-18T23:50:42.862Z,14.25
2022-10-18T23:57:44.780Z,11.75
